Terminal Aerodrome Forecast
Issued by NWS

Home | Current Version | Previous Version | Graphics & Text | Print | Product List | Glossary On
Versions: 1 2 3 4 5 6 7 8 9 10 11 12 13 14 15 16 17 18 19 20
000
FTUS43 KBIS 012000 AAA
TAFJMS
TAF AMD
KJMS 012014Z 0120/0218 27015KT P6SM BKN030 OVC035
     FM012100 29018KT P6SM BKN035
     FM020200 29012KT P6SM BKN050
     FM020800 29005KT P6SM BKN080=

USA.gov is the U.S. government's official web portal to all federal, state and local government web resources and services.